sensor_id;sensor_type;location;lat;lon;timestamp;P1;durP1;ratioP1;P2;durP2;ratioP2
15889;SDS011;8043;49.388;12.128;2023-04-24T00:04:33;3.57;;;1.47;;
15889;SDS011;8043;49.388;12.128;2023-04-24T00:09:35;2.60;;;1.40;;
15889;SDS011;8043;49.388;12.128;2023-04-24T00:14:38;5.10;;;1.10;;
15889;SDS011;8043;49.388;12.128;2023-04-24T00:19:40;1.37;;;1.00;;
15889;SDS011;8043;49.388;12.128;2023-04-24T00:24:42;1.55;;;1.10;;
15889;SDS011;8043;49.388;12.128;2023-04-24T00:29:45;2.73;;;1.13;;
15889;SDS011;8043;49.388;12.128;2023-04-24T00:34:47;2.57;;;1.17;;
15889;SDS011;8043;49.388;12.128;2023-04-24T00:39:50;2.67;;;1.67;;
15889;SDS011;8043;49.388;12.128;2023-04-24T00:44:52;4.33;;;1.50;;
15889;SDS011;8043;49.388;12.128;2023-04-24T00:49:55;1.93;;;1.27;;
15889;SDS011;8043;49.388;12.128;2023-04-24T00:54:57;1.87;;;1.37;;
15889;SDS011;8043;49.388;12.128;2023-04-24T01:00:00;2.73;;;1.50;;
15889;SDS011;8043;49.388;12.128;2023-04-24T01:05:03;2.53;;;1.47;;
15889;SDS011;8043;49.388;12.128;2023-04-24T01:10:07;1.33;;;1.20;;
15889;SDS011;8043;49.388;12.128;2023-04-24T01:15:10;2.17;;;1.20;;
15889;SDS011;8043;49.388;12.128;2023-04-24T01:20:12;2.10;;;1.33;;
15889;SDS011;8043;49.388;12.128;2023-04-24T01:25:14;2.20;;;1.30;;
15889;SDS011;8043;49.388;12.128;2023-04-24T01:30:17;2.07;;;1.33;;
15889;SDS011;8043;49.388;12.128;2023-04-24T01:35:19;3.93;;;1.60;;
15889;SDS011;8043;49.388;12.128;2023-04-24T01:40:22;3.27;;;1.30;;
15889;SDS011;8043;49.388;12.128;2023-04-24T01:45:24;3.50;;;1.47;;
15889;SDS011;8043;49.388;12.128;2023-04-24T01:50:26;2.57;;;1.50;;
15889;SDS011;8043;49.388;12.128;2023-04-24T01:55:29;1.67;;;1.40;;
15889;SDS011;8043;49.388;12.128;2023-04-24T02:00:31;2.70;;;1.57;;
15889;SDS011;8043;49.388;12.128;2023-04-24T02:05:33;3.07;;;2.60;;
15889;SDS011;8043;49.388;12.128;2023-04-24T02:10:35;3.15;;;2.00;;
15889;SDS011;8043;49.388;12.128;2023-04-24T02:15:38;3.57;;;1.80;;
15889;SDS011;8043;49.388;12.128;2023-04-24T02:20:40;2.80;;;1.60;;
15889;SDS011;8043;49.388;12.128;2023-04-24T02:25:42;3.27;;;1.77;;
15889;SDS011;8043;49.388;12.128;2023-04-24T02:30:44;4.07;;;1.70;;
15889;SDS011;8043;49.388;12.128;2023-04-24T02:35:46;2.57;;;1.57;;
15889;SDS011;8043;49.388;12.128;2023-04-24T02:40:49;5.40;;;1.80;;
15889;SDS011;8043;49.388;12.128;2023-04-24T02:45:51;2.67;;;1.93;;
15889;SDS011;8043;49.388;12.128;2023-04-24T02:50:53;3.80;;;2.27;;
15889;SDS011;8043;49.388;12.128;2023-04-24T02:55:55;2.60;;;1.70;;
15889;SDS011;8043;49.388;12.128;2023-04-24T03:00:58;2.43;;;1.90;;
15889;SDS011;8043;49.388;12.128;2023-04-24T03:06:01;5.53;;;2.17;;
15889;SDS011;8043;49.388;12.128;2023-04-24T03:11:03;4.30;;;2.27;;
15889;SDS011;8043;49.388;12.128;2023-04-24T03:16:06;7.13;;;3.13;;
15889;SDS011;8043;49.388;12.128;2023-04-24T03:21:08;6.33;;;2.90;;
15889;SDS011;8043;49.388;12.128;2023-04-24T03:26:10;7.53;;;3.07;;
15889;SDS011;8043;49.388;12.128;2023-04-24T03:31:12;5.47;;;3.10;;
15889;SDS011;8043;49.388;12.128;2023-04-24T03:36:16;9.37;;;3.77;;
15889;SDS011;8043;49.388;12.128;2023-04-24T03:41:19;4.97;;;3.13;;
15889;SDS011;8043;49.388;12.128;2023-04-24T03:46:23;6.87;;;3.73;;
15889;SDS011;8043;49.388;12.128;2023-04-24T03:51:25;6.60;;;3.30;;
15889;SDS011;8043;49.388;12.128;2023-04-24T03:56:28;5.53;;;3.80;;
15889;SDS011;8043;49.388;12.128;2023-04-24T04:01:31;7.63;;;4.53;;
15889;SDS011;8043;49.388;12.128;2023-04-24T04:06:34;7.47;;;3.90;;
15889;SDS011;8043;49.388;12.128;2023-04-24T04:11:37;6.00;;;3.63;;
15889;SDS011;8043;49.388;12.128;2023-04-24T04:16:40;4.80;;;3.17;;
15889;SDS011;8043;49.388;12.128;2023-04-24T04:21:42;5.40;;;3.30;;
15889;SDS011;8043;49.388;12.128;2023-04-24T04:26:46;4.63;;;2.77;;
15889;SDS011;8043;49.388;12.128;2023-04-24T04:31:50;5.07;;;2.83;;
15889;SDS011;8043;49.388;12.128;2023-04-24T04:36:53;5.80;;;2.40;;
15889;SDS011;8043;49.388;12.128;2023-04-24T04:41:55;4.40;;;2.53;;
15889;SDS011;8043;49.388;12.128;2023-04-24T04:46:59;3.50;;;2.67;;
15889;SDS011;8043;49.388;12.128;2023-04-24T04:52:01;6.07;;;3.47;;
15889;SDS011;8043;49.388;12.128;2023-04-24T04:57:03;5.60;;;2.50;;
15889;SDS011;8043;49.388;12.128;2023-04-24T05:02:06;4.80;;;3.00;;
15889;SDS011;8043;49.388;12.128;2023-04-24T05:07:08;4.50;;;2.83;;
15889;SDS011;8043;49.388;12.128;2023-04-24T05:12:10;4.60;;;3.07;;
15889;SDS011;8043;49.388;12.128;2023-04-24T05:17:12;7.10;;;3.00;;
15889;SDS011;8043;49.388;12.128;2023-04-24T05:22:15;5.57;;;2.80;;
15889;SDS011;8043;49.388;12.128;2023-04-24T05:27:19;6.43;;;3.20;;
15889;SDS011;8043;49.388;12.128;2023-04-24T05:32:21;6.90;;;3.63;;
15889;SDS011;8043;49.388;12.128;2023-04-24T05:37:24;5.67;;;3.50;;
15889;SDS011;8043;49.388;12.128;2023-04-24T05:42:26;6.83;;;3.70;;
15889;SDS011;8043;49.388;12.128;2023-04-24T05:47:28;5.80;;;3.13;;
15889;SDS011;8043;49.388;12.128;2023-04-24T05:52:30;6.63;;;3.30;;
15889;SDS011;8043;49.388;12.128;2023-04-24T05:57:32;5.10;;;3.30;;
15889;SDS011;8043;49.388;12.128;2023-04-24T06:02:35;6.60;;;3.50;;
15889;SDS011;8043;49.388;12.128;2023-04-24T06:07:37;5.20;;;2.97;;
15889;SDS011;8043;49.388;12.128;2023-04-24T06:12:40;5.33;;;3.30;;
15889;SDS011;8043;49.388;12.128;2023-04-24T06:17:43;5.97;;;3.53;;
15889;SDS011;8043;49.388;12.128;2023-04-24T06:22:45;9.60;;;4.40;;
15889;SDS011;8043;49.388;12.128;2023-04-24T06:27:47;8.10;;;4.07;;
15889;SDS011;8043;49.388;12.128;2023-04-24T06:32:50;8.83;;;4.30;;
15889;SDS011;8043;49.388;12.128;2023-04-24T06:37:52;5.20;;;3.37;;
15889;SDS011;8043;49.388;12.128;2023-04-24T06:42:56;4.87;;;3.00;;
15889;SDS011;8043;49.388;12.128;2023-04-24T06:48:00;5.47;;;3.23;;
15889;SDS011;8043;49.388;12.128;2023-04-24T06:53:02;3.90;;;2.33;;
15889;SDS011;8043;49.388;12.128;2023-04-24T06:58:04;5.50;;;2.70;;
15889;SDS011;8043;49.388;12.128;2023-04-24T07:03:07;3.93;;;2.40;;
15889;SDS011;8043;49.388;12.128;2023-04-24T07:08:10;3.97;;;2.50;;
15889;SDS011;8043;49.388;12.128;2023-04-24T07:13:13;5.10;;;2.60;;
15889;SDS011;8043;49.388;12.128;2023-04-24T07:18:16;2.77;;;2.23;;
15889;SDS011;8043;49.388;12.128;2023-04-24T07:23:19;2.80;;;2.10;;
15889;SDS011;8043;49.388;12.128;2023-04-24T07:28:21;3.07;;;2.23;;
15889;SDS011;8043;49.388;12.128;2023-04-24T07:33:23;4.00;;;2.30;;
15889;SDS011;8043;49.388;12.128;2023-04-24T07:38:26;2.70;;;1.90;;
15889;SDS011;8043;49.388;12.128;2023-04-24T07:43:28;2.40;;;1.93;;
15889;SDS011;8043;49.388;12.128;2023-04-24T07:48:30;4.27;;;2.13;;
15889;SDS011;8043;49.388;12.128;2023-04-24T07:53:33;2.37;;;1.50;;
15889;SDS011;8043;49.388;12.128;2023-04-24T07:58:35;1.50;;;1.40;;
15889;SDS011;8043;49.388;12.128;2023-04-24T08:03:37;1.17;;;1.03;;
15889;SDS011;8043;49.388;12.128;2023-04-24T08:08:40;0.90;;;0.80;;
15889;SDS011;8043;49.388;12.128;2023-04-24T08:13:42;0.80;;;0.80;;
15889;SDS011;8043;49.388;12.128;2023-04-24T08:18:44;1.37;;;0.87;;
15889;SDS011;8043;49.388;12.128;2023-04-24T08:23:46;1.10;;;0.80;;
15889;SDS011;8043;49.388;12.128;2023-04-24T08:28:49;0.87;;;0.57;;
15889;SDS011;8043;49.388;12.128;2023-04-24T08:33:51;0.97;;;0.60;;
15889;SDS011;8043;49.388;12.128;2023-04-24T08:38:53;2.13;;;0.70;;
15889;SDS011;8043;49.388;12.128;2023-04-24T08:43:56;2.20;;;0.80;;
15889;SDS011;8043;49.388;12.128;2023-04-24T08:48:59;2.27;;;0.87;;
15889;SDS011;8043;49.388;12.128;2023-04-24T08:54:02;1.03;;;0.70;;
15889;SDS011;8043;49.388;12.128;2023-04-24T08:59:06;1.63;;;0.80;;
15889;SDS011;8043;49.388;12.128;2023-04-24T09:04:09;1.60;;;1.07;;
15889;SDS011;8043;49.388;12.128;2023-04-24T09:09:13;1.57;;;0.80;;
15889;SDS011;8043;49.388;12.128;2023-04-24T09:14:15;1.73;;;0.80;;
15889;SDS011;8043;49.388;12.128;2023-04-24T09:19:19;2.47;;;0.97;;
15889;SDS011;8043;49.388;12.128;2023-04-24T09:24:22;1.50;;;0.80;;
15889;SDS011;8043;49.388;12.128;2023-04-24T09:29:25;0.73;;;0.73;;
15889;SDS011;8043;49.388;12.128;2023-04-24T09:34:27;0.50;;;0.47;;
15889;SDS011;8043;49.388;12.128;2023-04-24T09:39:29;1.20;;;0.80;;
15889;SDS011;8043;49.388;12.128;2023-04-24T09:44:34;1.20;;;1.07;;
15889;SDS011;8043;49.388;12.128;2023-04-24T09:49:35;0.70;;;0.70;;
15889;SDS011;8043;49.388;12.128;2023-04-24T09:54:40;2.47;;;0.90;;
15889;SDS011;8043;49.388;12.128;2023-04-24T09:59:42;5.20;;;0.90;;
15889;SDS011;8043;49.388;12.128;2023-04-24T10:04:56;1.97;;;1.43;;
15889;SDS011;8043;49.388;12.128;2023-04-24T10:10:00;2.30;;;0.80;;
15889;SDS011;8043;49.388;12.128;2023-04-24T10:15:02;1.07;;;0.87;;
15889;SDS011;8043;49.388;12.128;2023-04-24T10:20:06;1.30;;;1.00;;
15889;SDS011;8043;49.388;12.128;2023-04-24T10:25:08;1.40;;;0.97;;
15889;SDS011;8043;49.388;12.128;2023-04-24T10:30:11;3.80;;;2.07;;
15889;SDS011;8043;49.388;12.128;2023-04-24T10:35:15;4.60;;;1.43;;
15889;SDS011;8043;49.388;12.128;2023-04-24T10:40:18;1.27;;;1.17;;
15889;SDS011;8043;49.388;12.128;2023-04-24T10:45:21;0.90;;;0.90;;
15889;SDS011;8043;49.388;12.128;2023-04-24T10:50:28;2.10;;;1.10;;
15889;SDS011;8043;49.388;12.128;2023-04-24T10:55:39;0.80;;;0.80;;
15889;SDS011;8043;49.388;12.128;2023-04-24T11:00:43;5.07;;;2.23;;
15889;SDS011;8043;49.388;12.128;2023-04-24T11:05:53;1.27;;;1.00;;
15889;SDS011;8043;49.388;12.128;2023-04-24T11:10:59;0.83;;;0.83;;
15889;SDS011;8043;49.388;12.128;2023-04-24T11:16:13;1.03;;;0.83;;
15889;SDS011;8043;49.388;12.128;2023-04-24T11:21:16;0.97;;;0.90;;
15889;SDS011;8043;49.388;12.128;2023-04-24T11:26:21;0.80;;;0.80;;
15889;SDS011;8043;49.388;12.128;2023-04-24T11:31:38;1.13;;;0.90;;
15889;SDS011;8043;49.388;12.128;2023-04-24T11:36:42;1.10;;;1.00;;
15889;SDS011;8043;49.388;12.128;2023-04-24T11:41:45;0.80;;;0.80;;
15889;SDS011;8043;49.388;12.128;2023-04-24T11:46:48;0.77;;;0.70;;
15889;SDS011;8043;49.388;12.128;2023-04-24T11:51:50;2.63;;;1.57;;
15889;SDS011;8043;49.388;12.128;2023-04-24T11:56:56;1.47;;;1.10;;
15889;SDS011;8043;49.388;12.128;2023-04-24T12:01:59;2.80;;;1.30;;
15889;SDS011;8043;49.388;12.128;2023-04-24T12:07:03;0.95;;;0.88;;
15889;SDS011;8043;49.388;12.128;2023-04-24T12:12:09;2.93;;;1.27;;
15889;SDS011;8043;49.388;12.128;2023-04-24T12:17:12;0.83;;;0.67;;
15889;SDS011;8043;49.388;12.128;2023-04-24T12:22:14;0.90;;;0.60;;
15889;SDS011;8043;49.388;12.128;2023-04-24T12:27:19;0.60;;;0.50;;
15889;SDS011;8043;49.388;12.128;2023-04-24T12:32:23;2.00;;;0.60;;
15889;SDS011;8043;49.388;12.128;2023-04-24T12:37:32;3.70;;;1.10;;
15889;SDS011;8043;49.388;12.128;2023-04-24T12:42:32;1.77;;;0.90;;
15889;SDS011;8043;49.388;12.128;2023-04-24T12:47:34;1.07;;;0.83;;
15889;SDS011;8043;49.388;12.128;2023-04-24T12:52:37;0.60;;;0.60;;
15889;SDS011;8043;49.388;12.128;2023-04-24T12:57:40;1.33;;;0.73;;
15889;SDS011;8043;49.388;12.128;2023-04-24T13:02:42;0.77;;;0.77;;
15889;SDS011;8043;49.388;12.128;2023-04-24T13:07:45;3.50;;;0.70;;
15889;SDS011;8043;49.388;12.128;2023-04-24T13:12:47;0.77;;;0.77;;
15889;SDS011;8043;49.388;12.128;2023-04-24T13:17:50;0.70;;;0.70;;
15889;SDS011;8043;49.388;12.128;2023-04-24T13:22:52;1.10;;;0.80;;
15889;SDS011;8043;49.388;12.128;2023-04-24T13:27:54;4.90;;;1.60;;
15889;SDS011;8043;49.388;12.128;2023-04-24T13:32:57;3.60;;;1.97;;
15889;SDS011;8043;49.388;12.128;2023-04-24T13:37:59;1.40;;;0.93;;
15889;SDS011;8043;49.388;12.128;2023-04-24T13:43:01;1.13;;;0.60;;
15889;SDS011;8043;49.388;12.128;2023-04-24T13:48:04;1.90;;;1.20;;
15889;SDS011;8043;49.388;12.128;2023-04-24T13:53:06;1.60;;;1.20;;
15889;SDS011;8043;49.388;12.128;2023-04-24T13:58:08;1.30;;;1.20;;
15889;SDS011;8043;49.388;12.128;2023-04-24T14:03:11;0.90;;;0.90;;
15889;SDS011;8043;49.388;12.128;2023-04-24T14:08:13;2.80;;;1.20;;
15889;SDS011;8043;49.388;12.128;2023-04-24T14:13:15;1.73;;;0.93;;
15889;SDS011;8043;49.388;12.128;2023-04-24T14:18:17;1.20;;;1.10;;
15889;SDS011;8043;49.388;12.128;2023-04-24T14:23:20;1.97;;;1.10;;
15889;SDS011;8043;49.388;12.128;2023-04-24T14:28:23;1.10;;;0.80;;
15889;SDS011;8043;49.388;12.128;2023-04-24T14:33:27;0.87;;;0.67;;
15889;SDS011;8043;49.388;12.128;2023-04-24T14:38:29;1.37;;;0.70;;
15889;SDS011;8043;49.388;12.128;2023-04-24T14:43:32;2.40;;;0.50;;
15889;SDS011;8043;49.388;12.128;2023-04-24T14:48:35;2.07;;;0.60;;
15889;SDS011;8043;49.388;12.128;2023-04-24T14:53:37;2.10;;;0.70;;
15889;SDS011;8043;49.388;12.128;2023-04-24T14:58:39;0.87;;;0.73;;
15889;SDS011;8043;49.388;12.128;2023-04-24T15:03:42;1.33;;;1.00;;
15889;SDS011;8043;49.388;12.128;2023-04-24T15:08:45;2.37;;;0.77;;
15889;SDS011;8043;49.388;12.128;2023-04-24T15:13:48;1.40;;;1.30;;
15889;SDS011;8043;49.388;12.128;2023-04-24T15:18:51;1.27;;;1.17;;
15889;SDS011;8043;49.388;12.128;2023-04-24T15:23:56;1.90;;;1.20;;
15889;SDS011;8043;49.388;12.128;2023-04-24T15:28:58;1.67;;;1.43;;
15889;SDS011;8043;49.388;12.128;2023-04-24T15:34:01;2.77;;;1.60;;
15889;SDS011;8043;49.388;12.128;2023-04-24T15:39:03;2.30;;;1.30;;
15889;SDS011;8043;49.388;12.128;2023-04-24T15:44:05;1.87;;;1.03;;
15889;SDS011;8043;49.388;12.128;2023-04-24T15:49:07;1.20;;;1.03;;
15889;SDS011;8043;49.388;12.128;2023-04-24T15:54:09;1.37;;;1.00;;
15889;SDS011;8043;49.388;12.128;2023-04-24T15:59:12;1.53;;;1.10;;
15889;SDS011;8043;49.388;12.128;2023-04-24T16:04:14;4.10;;;1.20;;
15889;SDS011;8043;49.388;12.128;2023-04-24T16:09:16;1.10;;;1.00;;
15889;SDS011;8043;49.388;12.128;2023-04-24T16:14:18;1.87;;;1.17;;
15889;SDS011;8043;49.388;12.128;2023-04-24T16:19:21;3.53;;;1.10;;
15889;SDS011;8043;49.388;12.128;2023-04-24T16:24:23;2.40;;;0.80;;
15889;SDS011;8043;49.388;12.128;2023-04-24T16:29:26;1.43;;;1.00;;
15889;SDS011;8043;49.388;12.128;2023-04-24T16:34:29;1.37;;;0.87;;
15889;SDS011;8043;49.388;12.128;2023-04-24T16:39:31;1.10;;;1.00;;
15889;SDS011;8043;49.388;12.128;2023-04-24T16:44:34;1.03;;;0.77;;
15889;SDS011;8043;49.388;12.128;2023-04-24T16:49:38;1.63;;;1.10;;
15889;SDS011;8043;49.388;12.128;2023-04-24T16:54:43;2.10;;;1.27;;
15889;SDS011;8043;49.388;12.128;2023-04-24T16:59:45;1.27;;;1.10;;
15889;SDS011;8043;49.388;12.128;2023-04-24T17:04:47;1.60;;;1.10;;
15889;SDS011;8043;49.388;12.128;2023-04-24T17:09:49;2.33;;;1.40;;
15889;SDS011;8043;49.388;12.128;2023-04-24T17:14:51;2.87;;;1.10;;
15889;SDS011;8043;49.388;12.128;2023-04-24T17:19:54;1.40;;;1.30;;
15889;SDS011;8043;49.388;12.128;2023-04-24T17:24:56;2.97;;;1.67;;
15889;SDS011;8043;49.388;12.128;2023-04-24T17:29:59;2.10;;;1.37;;
15889;SDS011;8043;49.388;12.128;2023-04-24T17:35:01;3.10;;;1.87;;
15889;SDS011;8043;49.388;12.128;2023-04-24T17:40:03;2.43;;;1.50;;
15889;SDS011;8043;49.388;12.128;2023-04-24T17:45:06;3.33;;;1.83;;
15889;SDS011;8043;49.388;12.128;2023-04-24T17:50:09;2.27;;;1.60;;
15889;SDS011;8043;49.388;12.128;2023-04-24T17:55:12;2.83;;;1.67;;
15889;SDS011;8043;49.388;12.128;2023-04-24T18:00:15;2.30;;;1.60;;
15889;SDS011;8043;49.388;12.128;2023-04-24T18:05:18;2.53;;;1.83;;
15889;SDS011;8043;49.388;12.128;2023-04-24T18:10:21;4.83;;;2.40;;
15889;SDS011;8043;49.388;12.128;2023-04-24T18:15:23;2.90;;;2.10;;
15889;SDS011;8043;49.388;12.128;2023-04-24T18:20:26;1.87;;;1.63;;
15889;SDS011;8043;49.388;12.128;2023-04-24T18:25:29;3.67;;;2.60;;
15889;SDS011;8043;49.388;12.128;2023-04-24T18:30:33;2.67;;;1.70;;
15889;SDS011;8043;49.388;12.128;2023-04-24T18:35:36;3.63;;;2.23;;
15889;SDS011;8043;49.388;12.128;2023-04-24T18:40:38;3.20;;;1.93;;
15889;SDS011;8043;49.388;12.128;2023-04-24T18:45:40;5.13;;;2.60;;
15889;SDS011;8043;49.388;12.128;2023-04-24T18:50:43;2.47;;;1.87;;
15889;SDS011;8043;49.388;12.128;2023-04-24T18:55:48;2.90;;;2.20;;
15889;SDS011;8043;49.388;12.128;2023-04-24T19:00:50;3.30;;;1.90;;
15889;SDS011;8043;49.388;12.128;2023-04-24T19:05:53;4.62;;;2.67;;
15889;SDS011;8043;49.388;12.128;2023-04-24T19:10:55;7.80;;;3.67;;
15889;SDS011;8043;49.388;12.128;2023-04-24T19:15:58;3.50;;;2.33;;
15889;SDS011;8043;49.388;12.128;2023-04-24T19:21:01;2.57;;;1.73;;
15889;SDS011;8043;49.388;12.128;2023-04-24T19:26:04;3.37;;;2.30;;
15889;SDS011;8043;49.388;12.128;2023-04-24T19:31:06;3.07;;;2.13;;
15889;SDS011;8043;49.388;12.128;2023-04-24T19:36:09;3.23;;;2.13;;
15889;SDS011;8043;49.388;12.128;2023-04-24T19:41:12;3.30;;;2.30;;
15889;SDS011;8043;49.388;12.128;2023-04-24T19:46:16;5.60;;;1.87;;
15889;SDS011;8043;49.388;12.128;2023-04-24T19:51:19;2.00;;;1.80;;
15889;SDS011;8043;49.388;12.128;2023-04-24T19:56:22;4.13;;;2.00;;
15889;SDS011;8043;49.388;12.128;2023-04-24T20:01:24;2.42;;;1.77;;
15889;SDS011;8043;49.388;12.128;2023-04-24T20:06:26;2.73;;;2.00;;
15889;SDS011;8043;49.388;12.128;2023-04-24T20:11:29;3.13;;;2.03;;
15889;SDS011;8043;49.388;12.128;2023-04-24T20:16:32;4.90;;;2.30;;
15889;SDS011;8043;49.388;12.128;2023-04-24T20:21:34;1.80;;;1.53;;
15889;SDS011;8043;49.388;12.128;2023-04-24T20:26:37;3.20;;;2.20;;
15889;SDS011;8043;49.388;12.128;2023-04-24T20:31:39;4.03;;;2.10;;
15889;SDS011;8043;49.388;12.128;2023-04-24T20:36:42;3.00;;;2.23;;
15889;SDS011;8043;49.388;12.128;2023-04-24T20:41:44;6.20;;;2.53;;
15889;SDS011;8043;49.388;12.128;2023-04-24T20:46:47;4.57;;;2.10;;
15889;SDS011;8043;49.388;12.128;2023-04-24T20:51:49;4.30;;;2.27;;
15889;SDS011;8043;49.388;12.128;2023-04-24T20:56:51;7.03;;;2.00;;
15889;SDS011;8043;49.388;12.128;2023-04-24T21:01:54;4.27;;;2.30;;
15889;SDS011;8043;49.388;12.128;2023-04-24T21:06:56;4.03;;;2.40;;
15889;SDS011;8043;49.388;12.128;2023-04-24T21:11:59;4.50;;;2.40;;
15889;SDS011;8043;49.388;12.128;2023-04-24T21:17:02;2.43;;;2.07;;
15889;SDS011;8043;49.388;12.128;2023-04-24T21:22:05;3.37;;;1.90;;
15889;SDS011;8043;49.388;12.128;2023-04-24T21:27:07;5.43;;;2.87;;
15889;SDS011;8043;49.388;12.128;2023-04-24T21:32:10;4.83;;;2.83;;
15889;SDS011;8043;49.388;12.128;2023-04-24T21:37:13;6.13;;;3.60;;
15889;SDS011;8043;49.388;12.128;2023-04-24T21:42:15;6.57;;;3.00;;
15889;SDS011;8043;49.388;12.128;2023-04-24T21:47:18;6.97;;;2.97;;
15889;SDS011;8043;49.388;12.128;2023-04-24T21:52:20;4.50;;;2.27;;
15889;SDS011;8043;49.388;12.128;2023-04-24T21:57:22;14.40;;;7.87;;
15889;SDS011;8043;49.388;12.128;2023-04-24T22:02:25;5.70;;;3.40;;
15889;SDS011;8043;49.388;12.128;2023-04-24T22:07:27;6.80;;;3.13;;
15889;SDS011;8043;49.388;12.128;2023-04-24T22:12:30;4.57;;;2.77;;
15889;SDS011;8043;49.388;12.128;2023-04-24T22:17:32;5.23;;;2.87;;
15889;SDS011;8043;49.388;12.128;2023-04-24T22:22:36;8.20;;;4.00;;
15889;SDS011;8043;49.388;12.128;2023-04-24T22:27:38;10.65;;;4.40;;
15889;SDS011;8043;49.388;12.128;2023-04-24T22:32:41;4.77;;;2.97;;
15889;SDS011;8043;49.388;12.128;2023-04-24T22:37:43;5.73;;;2.70;;
15889;SDS011;8043;49.388;12.128;2023-04-24T22:42:47;4.57;;;2.63;;
15889;SDS011;8043;49.388;12.128;2023-04-24T22:47:50;6.83;;;2.57;;
15889;SDS011;8043;49.388;12.128;2023-04-24T22:52:53;5.20;;;3.47;;
15889;SDS011;8043;49.388;12.128;2023-04-24T22:57:55;8.97;;;3.53;;
15889;SDS011;8043;49.388;12.128;2023-04-24T23:02:57;6.73;;;3.00;;
15889;SDS011;8043;49.388;12.128;2023-04-24T23:08:00;5.17;;;3.37;;
15889;SDS011;8043;49.388;12.128;2023-04-24T23:13:02;7.10;;;3.23;;
15889;SDS011;8043;49.388;12.128;2023-04-24T23:18:04;4.60;;;2.40;;
15889;SDS011;8043;49.388;12.128;2023-04-24T23:23:06;3.73;;;2.57;;
15889;SDS011;8043;49.388;12.128;2023-04-24T23:28:08;6.03;;;2.93;;
15889;SDS011;8043;49.388;12.128;2023-04-24T23:33:11;4.97;;;2.50;;
15889;SDS011;8043;49.388;12.128;2023-04-24T23:38:13;4.93;;;2.57;;
15889;SDS011;8043;49.388;12.128;2023-04-24T23:43:16;3.87;;;2.40;;
15889;SDS011;8043;49.388;12.128;2023-04-24T23:48:18;3.80;;;2.07;;
15889;SDS011;8043;49.388;12.128;2023-04-24T23:53:20;4.93;;;2.90;;
15889;SDS011;8043;49.388;12.128;2023-04-24T23:58:23;3.07;;;2.20;;
